Time;durP1;ratioP1;P1;durP2;ratioP2;P2;SDS_P1;SDS_P2;PMS_P1;PMS_P2;Temp;Humidity;BMP_temperature;BMP_pressure;BME280_temperature;BME280_humidity;BME280_pressure;Samples;Min_cycle;Max_cycle;Signal;HPM_P1;HPM_P2
2023/08/29 00:04:46;;;;;;;19.98;4.53;;;23.50;60.30;;;;;;5069355;22;20561;-76
2023/08/29 00:07:11;;;;;;;17.42;3.95;;;23.50;60.30;;;;;;5095688;28;20048;-75
2023/08/29 00:09:37;;;;;;;19.30;3.70;;;23.50;60.00;;;;;;5095773;28;20115;-75
2023/08/29 00:12:03;;;;;;;20.35;3.83;;;23.50;60.00;;;;;;5095405;28;20181;-76
2023/08/29 00:14:29;;;;;;;18.88;4.38;;;23.50;59.80;;;;;;5095852;28;20144;-76
2023/08/29 00:16:55;;;;;;;18.20;4.35;;;23.50;59.60;;;;;;5095949;28;20132;-75
2023/08/29 00:19:21;;;;;;;16.98;3.80;;;23.50;59.40;;;;;;5095780;28;20032;-75
2023/08/29 00:21:47;;;;;;;19.15;3.92;;;23.50;59.60;;;;;;5095633;28;20053;-77
2023/08/29 00:24:13;;;;;;;14.80;3.80;;;23.50;59.60;;;;;;5095624;28;20054;-76
2023/08/29 00:26:41;;;;;;;17.58;4.10;;;23.50;59.60;;;;;;5095341;28;20036;-75
2023/08/29 00:29:06;;;;;;;17.63;3.88;;;23.50;59.40;;;;;;5095938;28;20170;-76
2023/08/29 00:31:32;;;;;;;19.58;4.25;;;23.50;59.40;;;;;;5095752;28;20066;-76
2023/08/29 00:33:58;;;;;;;21.60;4.03;;;23.50;59.60;;;;;;5095492;28;20028;-76
2023/08/29 00:36:23;;;;;;;18.95;4.90;;;23.50;60.20;;;;;;5095482;28;20039;-76
2023/08/29 00:38:49;;;;;;;23.35;4.32;;;23.40;60.60;;;;;;5095328;28;20072;-74
2023/08/29 00:41:15;;;;;;;19.80;4.53;;;23.40;60.80;;;;;;5095244;28;20024;-76
2023/08/29 00:43:40;;;;;;;22.33;4.47;;;23.30;60.50;;;;;;5099112;28;20039;-76
2023/08/29 00:46:06;;;;;;;18.10;3.65;;;23.30;60.30;;;;;;5110242;28;20040;-75
2023/08/29 00:48:32;;;;;;;20.52;3.40;;;23.20;59.50;;;;;;5096390;28;20406;-77
2023/08/29 00:50:59;;;;;;;16.55;3.65;;;23.20;58.90;;;;;;5095289;28;20032;-76
2023/08/29 00:53:25;;;;;;;14.27;3.50;;;23.20;58.80;;;;;;5095353;28;20114;-77
2023/08/29 00:55:51;;;;;;;16.55;3.88;;;23.20;58.60;;;;;;5094855;28;20038;-77
2023/08/29 00:58:17;;;;;;;22.15;4.18;;;23.20;58.60;;;;;;5095317;28;20024;-76
2023/08/29 01:00:44;;;;;;;16.40;4.38;;;23.30;58.60;;;;;;5094799;28;20047;-77
2023/08/29 01:03:10;;;;;;;14.00;3.80;;;23.30;58.30;;;;;;5094689;28;20085;-75
2023/08/29 01:05:36;;;;;;;18.95;4.28;;;23.30;58.30;;;;;;5094341;28;20131;-76
2023/08/29 01:08:02;;;;;;;19.88;4.47;;;23.30;58.30;;;;;;5094529;28;20039;-75
2023/08/29 01:10:43;;;;;;;23.98;4.30;;;23.40;58.30;;;;;;5094616;28;20151;-76
2023/08/29 01:13:26;;;;;;;21.20;3.58;;;23.40;58.60;;;;;;5094693;28;20428;-74
2023/08/29 01:15:55;;;;;;;15.95;3.60;;;23.30;58.20;;;;;;5094619;28;20040;-75
2023/08/29 01:18:23;;;;;;;15.27;3.53;;;23.40;58.40;;;;;;5094325;28;20032;-76
2023/08/29 01:20:54;;;;;;;17.63;3.97;;;23.30;58.10;;;;;;5094169;28;20032;-75
2023/08/29 01:23:31;;;;;;;21.52;5.05;;;23.30;57.90;;;;;;5094154;28;20032;-77
2023/08/29 01:26:16;;;;;;;18.73;3.85;;;23.30;58.10;;;;;;5094347;28;20044;-76
2023/08/29 01:28:46;;;;;;;20.02;3.88;;;23.30;58.00;;;;;;5094214;28;20047;-76
2023/08/29 01:31:13;;;;;;;18.58;4.43;;;23.30;58.00;;;;;;5094119;28;20035;-77
2023/08/29 01:33:42;;;;;;;17.30;3.63;;;23.30;58.00;;;;;;5094507;28;20047;-75
2023/08/29 01:36:08;;;;;;;16.70;3.90;;;23.30;58.30;;;;;;5093941;28;20059;-77
2023/08/29 01:38:34;;;;;;;15.32;4.15;;;23.30;58.00;;;;;;5094097;28;20059;-77
2023/08/29 01:40:59;;;;;;;15.60;4.07;;;23.30;57.50;;;;;;5094287;28;20043;-75
2023/08/29 01:43:25;;;;;;;11.30;3.45;;;23.30;57.80;;;;;;5093661;28;20032;-77
2023/08/29 01:45:51;;;;;;;13.85;3.42;;;23.30;57.50;;;;;;5093660;28;20487;-75
2023/08/29 01:48:17;;;;;;;11.68;3.20;;;23.30;57.20;;;;;;5093988;28;20039;-77
2023/08/29 01:50:43;;;;;;;16.90;3.40;;;23.30;57.40;;;;;;5093941;28;20043;-76
2023/08/29 01:53:09;;;;;;;14.50;3.60;;;23.30;57.30;;;;;;5092702;28;20040;-76
2023/08/29 01:55:37;;;;;;;17.20;3.47;;;23.30;57.40;;;;;;5093751;28;20031;-76
2023/08/29 01:58:04;;;;;;;16.85;3.83;;;23.30;57.40;;;;;;5093646;28;20032;-76
2023/08/29 02:00:31;;;;;;;17.60;3.53;;;23.30;57.60;;;;;;5093760;28;20024;-76
2023/08/29 02:02:57;;;;;;;13.95;3.55;;;23.20;57.20;;;;;;5075290;28;20490;-74
2023/08/29 02:05:23;;;;;;;17.20;4.10;;;23.20;57.50;;;;;;5093236;28;20070;-76
2023/08/29 02:07:50;;;;;;;18.58;3.53;;;23.20;57.30;;;;;;5093434;28;20032;-77
2023/08/29 02:10:16;;;;;;;14.48;3.20;;;23.20;57.20;;;;;;5093524;28;20028;-77
2023/08/29 02:12:41;;;;;;;15.15;3.33;;;23.10;57.40;;;;;;5093287;28;20044;-76
2023/08/29 02:15:08;;;;;;;16.05;3.63;;;23.10;57.40;;;;;;5093326;28;20471;-77
2023/08/29 02:17:36;;;;;;;17.40;3.72;;;23.10;57.50;;;;;;5075113;28;20047;-76
2023/08/29 02:20:03;;;;;;;16.20;3.45;;;23.10;57.80;;;;;;5075505;28;20111;-77
2023/08/29 02:22:30;;;;;;;18.83;4.13;;;23.20;57.90;;;;;;5093485;28;20028;-75
2023/08/29 02:24:56;;;;;;;21.83;4.18;;;23.10;57.80;;;;;;5093474;28;20403;-76
2023/08/29 02:27:22;;;;;;;22.02;4.00;;;23.10;57.70;;;;;;5093215;28;20030;-77
2023/08/29 02:29:48;;;;;;;14.52;4.15;;;23.10;57.70;;;;;;5075048;28;20064;-78
2023/08/29 02:32:15;;;;;;;15.07;3.65;;;23.10;58.10;;;;;;5093316;28;20048;-77
2023/08/29 02:34:40;;;;;;;21.98;4.43;;;23.10;58.30;;;;;;5093917;28;20085;-76
2023/08/29 02:37:06;;;;;;;24.42;4.80;;;23.10;58.50;;;;;;5109185;28;20044;-76
2023/08/29 02:39:32;;;;;;;22.00;4.22;;;23.10;58.70;;;;;;5100254;28;20032;-75
2023/08/29 02:41:58;;;;;;;24.13;4.35;;;23.10;59.50;;;;;;5093174;28;20036;-76
2023/08/29 02:44:23;;;;;;;21.17;4.90;;;23.00;60.50;;;;;;5074888;28;20153;-77
2023/08/29 02:46:49;;;;;;;20.33;4.55;;;23.00;62.30;;;;;;5092960;28;20028;-76
2023/08/29 02:49:15;;;;;;;19.73;4.47;;;22.80;63.40;;;;;;5074714;28;20036;-76
2023/08/29 02:51:40;;;;;;;15.38;4.03;;;22.80;63.70;;;;;;5092792;28;20036;-76
2023/08/29 02:54:06;;;;;;;20.33;4.25;;;22.80;64.10;;;;;;5093015;28;20036;-77
2023/08/29 02:56:32;;;;;;;17.95;4.25;;;22.70;64.50;;;;;;5092691;28;20106;-77
2023/08/29 02:58:57;;;;;;;17.40;4.22;;;22.70;65.00;;;;;;5074459;28;20079;-77
2023/08/29 03:01:23;;;;;;;21.38;4.70;;;22.60;65.30;;;;;;5092728;28;20394;-77
2023/08/29 03:03:49;;;;;;;22.48;4.45;;;22.60;65.60;;;;;;5092322;28;20028;-77
2023/08/29 03:06:15;;;;;;;23.10;5.05;;;22.60;66.10;;;;;;5092312;28;20052;-76
2023/08/29 03:08:41;;;;;;;21.52;4.70;;;22.60;67.20;;;;;;5074141;28;20140;-76
2023/08/29 03:11:07;;;;;;;23.55;5.32;;;22.50;66.40;;;;;;5092503;28;20036;-77
2023/08/29 03:13:32;;;;;;;23.98;5.55;;;22.50;67.00;;;;;;5092429;28;20036;-76
2023/08/29 03:16:01;;;;;;;26.83;5.30;;;22.50;67.40;;;;;;5092557;28;20073;-77
2023/08/29 03:18:27;;;;;;;30.02;6.50;;;22.50;67.90;;;;;;5093011;28;20040;-75
2023/08/29 03:20:53;;;;;;;23.00;5.40;;;22.50;68.00;;;;;;5093059;28;20115;-77
2023/08/29 03:23:19;;;;;;;20.73;4.45;;;22.50;68.40;;;;;;5092756;28;20043;-77
2023/08/29 03:25:45;;;;;;;25.67;5.40;;;22.50;68.70;;;;;;5092105;28;20028;-77
2023/08/29 03:28:10;;;;;;;18.88;5.38;;;22.50;68.40;;;;;;5091997;28;20038;-77
2023/08/29 03:30:36;;;;;;;16.10;4.63;;;22.50;68.10;;;;;;5092271;28;20070;-78
2023/08/29 03:33:02;;;;;;;19.40;4.03;;;22.50;68.20;;;;;;5092332;28;20040;-78
2023/08/29 03:35:28;;;;;;;20.13;4.70;;;22.40;68.40;;;;;;5092236;28;20028;-78
2023/08/29 03:37:54;;;;;;;22.85;5.05;;;22.40;68.50;;;;;;5073756;28;20043;-76
2023/08/29 03:40:19;;;;;;;25.75;5.38;;;22.40;68.80;;;;;;5092037;28;20036;-76
2023/08/29 03:42:46;;;;;;;18.33;4.18;;;22.40;68.90;;;;;;5091971;28;20040;-75
2023/08/29 03:45:11;;;;;;;19.10;3.67;;;22.40;68.90;;;;;;5092087;28;20036;-76
2023/08/29 03:47:39;;;;;;;20.90;5.03;;;22.40;69.20;;;;;;5092090;28;20500;-77
2023/08/29 03:50:06;;;;;;;23.23;5.60;;;22.50;69.30;;;;;;5092262;28;20032;-76
2023/08/29 03:52:31;;;;;;;21.90;5.13;;;22.50;69.40;;;;;;5073817;28;20051;-78
2023/08/29 03:54:57;;;;;;;25.95;5.00;;;22.50;69.80;;;;;;5091920;28;20044;-77
2023/08/29 03:57:23;;;;;;;25.35;5.22;;;22.50;69.90;;;;;;5073936;28;20140;-77
2023/08/29 03:59:49;;;;;;;23.25;5.10;;;22.50;70.00;;;;;;5091937;28;20394;-78
2023/08/29 04:02:15;;;;;;;25.17;5.68;;;22.40;70.20;;;;;;5091882;28;20036;-77
2023/08/29 04:04:44;;;;;;;22.80;5.35;;;22.50;70.60;;;;;;5073863;28;20451;-76
2023/08/29 04:07:13;;;;;;;18.30;4.05;;;22.50;70.80;;;;;;5092029;28;20040;-75
2023/08/29 04:09:39;;;;;;;19.15;4.10;;;22.50;71.30;;;;;;5092190;28;20059;-76
2023/08/29 04:12:08;;;;;;;19.80;4.82;;;22.40;71.30;;;;;;5073798;28;20044;-76
2023/08/29 04:14:34;;;;;;;25.92;5.25;;;22.50;71.70;;;;;;5092138;28;20073;-77
2023/08/29 04:17:00;;;;;;;20.13;5.53;;;22.50;71.80;;;;;;5094930;28;20060;-77
2023/08/29 04:19:26;;;;;;;20.58;4.97;;;22.50;72.00;;;;;;5095123;28;20107;-80
2023/08/29 04:21:52;;;;;;;21.50;5.28;;;22.50;72.20;;;;;;5095160;28;20490;-77
2023/08/29 04:24:18;;;;;;;17.27;4.90;;;22.50;72.20;;;;;;5095249;28;20093;-77
2023/08/29 04:26:43;;;;;;;22.73;5.53;;;22.60;72.40;;;;;;5095317;28;20437;-76
2023/08/29 04:29:09;;;;;;;26.77;5.15;;;22.50;72.30;;;;;;5095238;28;20063;-77
2023/08/29 04:31:35;;;;;;;21.92;5.30;;;22.40;72.80;;;;;;5077337;28;20102;-79
2023/08/29 04:34:01;;;;;;;23.67;5.28;;;22.50;73.20;;;;;;5095689;28;20093;-76
2023/08/29 04:36:27;;;;;;;24.52;5.90;;;22.40;73.40;;;;;;5077128;28;20455;-77
2023/08/29 04:38:52;;;;;;;28.30;5.47;;;22.40;73.70;;;;;;5094930;28;20051;-77
2023/08/29 04:41:18;;;;;;;20.75;5.38;;;22.30;74.00;;;;;;5094913;28;20039;-77
2023/08/29 04:43:44;;;;;;;18.38;5.10;;;22.30;74.30;;;;;;5095401;28;20133;-75
2023/08/29 04:46:09;;;;;;;23.55;5.70;;;22.30;74.80;;;;;;5094889;28;20051;-77
2023/08/29 04:48:36;;;;;;;22.38;5.28;;;22.30;74.90;;;;;;5094951;28;20408;-77
2023/08/29 04:51:04;;;;;;;24.15;5.20;;;22.20;75.00;;;;;;5094699;28;20036;-76
2023/08/29 04:53:30;;;;;;;24.80;5.38;;;22.20;75.50;;;;;;5076134;28;20039;-75
2023/08/29 04:56:03;;;;;;;20.40;5.32;;;22.20;75.90;;;;;;5094971;28;20036;-77
2023/08/29 04:58:29;;;;;;;26.02;5.80;;;22.20;76.00;;;;;;5094724;28;20543;-80
2023/08/29 05:00:56;;;;;;;23.42;5.05;;;22.10;75.80;;;;;;5094671;28;20032;-79
2023/08/29 05:03:22;;;;;;;26.05;5.43;;;22.10;76.10;;;;;;5094146;28;20040;-77
2023/08/29 05:05:48;;;;;;;26.90;5.85;;;22.10;76.30;;;;;;5094205;28;20388;-78
2023/08/29 05:08:14;;;;;;;23.42;5.50;;;22.20;76.70;;;;;;5094513;28;20051;-78
2023/08/29 05:10:43;;;;;;;23.10;5.88;;;22.30;76.80;;;;;;5094755;28;20028;-77
2023/08/29 05:13:09;;;;;;;22.85;5.88;;;22.30;76.90;;;;;;5094666;28;20044;-79
2023/08/29 05:15:35;;;;;;;17.70;5.05;;;22.30;77.10;;;;;;5095058;28;20051;-77
2023/08/29 05:18:01;;;;;;;25.60;5.75;;;22.30;77.20;;;;;;5094792;28;20059;-81
2023/08/29 05:20:27;;;;;;;26.77;6.47;;;22.30;77.30;;;;;;5094747;28;20071;-77
2023/08/29 05:22:52;;;;;;;20.92;5.32;;;22.30;77.40;;;;;;5094335;28;20558;-76
2023/08/29 05:25:18;;;;;;;28.67;6.22;;;22.20;77.60;;;;;;5094379;28;20063;-77
2023/08/29 05:27:44;;;;;;;25.23;5.32;;;22.20;77.50;;;;;;5094012;28;20510;-76
2023/08/29 05:30:09;;;;;;;23.38;5.40;;;22.20;77.70;;;;;;5093955;28;20128;-76
2023/08/29 05:32:38;;;;;;;25.08;5.53;;;22.20;78.10;;;;;;5094008;28;20764;-78
2023/08/29 05:35:04;;;;;;;30.23;6.05;;;22.20;78.10;;;;;;5075661;28;20056;-80
2023/08/29 05:37:30;;;;;;;22.45;5.97;;;22.20;78.20;;;;;;5093985;28;20032;-78
2023/08/29 05:39:56;;;;;;;26.30;6.15;;;22.10;78.30;;;;;;5094325;28;20035;-78
2023/08/29 05:42:21;;;;;;;24.38;6.25;;;22.20;78.70;;;;;;5088430;28;20078;-78
2023/08/29 05:44:47;;;;;;;28.52;7.03;;;22.20;79.00;;;;;;5073714;28;20103;-79
2023/08/29 05:47:13;;;;;;;27.52;6.35;;;22.20;79.10;;;;;;5077092;28;20480;-75
2023/08/29 05:49:38;;;;;;;24.45;5.45;;;22.10;79.20;;;;;;5075056;28;20032;-68
2023/08/29 05:52:05;;;;;;;19.65;5.68;;;22.00;79.40;;;;;;5073058;28;20067;-67
2023/08/29 05:54:31;;;;;;;20.15;4.63;;;22.00;79.60;;;;;;5073120;28;20066;-66
2023/08/29 05:56:57;;;;;;;22.77;5.70;;;22.00;79.70;;;;;;5072802;28;20044;-66
2023/08/29 05:59:22;;;;;;;25.10;5.55;;;22.00;79.80;;;;;;5078543;28;20060;-71
2023/08/29 06:01:48;;;;;;;23.25;5.68;;;22.00;79.90;;;;;;5080874;28;20491;-65
2023/08/29 21:10:30;;;;;;;23.13;5.63;;;21.40;71.10;;;;;;5130393;27;20074;-81
2023/08/29 21:12:55;;;;;;;19.23;4.90;;;21.40;70.60;;;;;;5135283;27;20047;-78
2023/08/29 21:15:22;;;;;;;22.38;5.78;;;21.40;70.70;;;;;;5135207;27;20092;-79
2023/08/29 21:17:48;;;;;;;18.50;5.05;;;21.50;70.80;;;;;;5135001;27;20402;-78
2023/08/29 21:20:14;;;;;;;18.15;6.00;;;21.50;70.50;;;;;;5131846;27;20040;-79
2023/08/29 21:22:39;;;;;;;20.70;6.15;;;21.50;70.60;;;;;;5125915;27;20495;-81
2023/08/29 21:25:05;;;;;;;22.52;5.88;;;21.50;70.70;;;;;;5106507;27;20034;-81
2023/08/29 21:27:31;;;;;;;25.42;5.93;;;21.50;70.60;;;;;;5131862;27;20421;-79
2023/08/29 21:29:57;;;;;;;19.83;5.70;;;21.50;70.60;;;;;;5107125;27;20057;-78
2023/08/29 21:32:22;;;;;;;19.00;5.90;;;21.60;70.60;;;;;;5114460;28;20028;-82
2023/08/29 21:34:50;;;;;;;19.40;5.30;;;21.60;70.50;;;;;;5114311;28;20035;-78
2023/08/29 21:37:16;;;;;;;20.38;5.35;;;21.60;70.30;;;;;;5114724;28;20031;-79
2023/08/29 21:39:41;;;;;;;18.17;5.25;;;21.60;70.20;;;;;;5119399;27;20091;-79
2023/08/29 21:42:07;;;;;;;24.10;5.35;;;21.70;70.40;;;;;;5130067;27;20110;-78
2023/08/29 21:44:33;;;;;;;19.20;5.30;;;21.70;70.20;;;;;;5133962;27;20042;-81
2023/08/29 21:46:59;;;;;;;18.67;4.78;;;21.70;70.00;;;;;;5134032;27;20172;-77
2023/08/29 21:49:24;;;;;;;24.40;6.07;;;21.80;69.80;;;;;;5134135;27;20499;-78
2023/08/29 21:51:50;;;;;;;20.02;5.10;;;21.80;69.90;;;;;;5134336;27;20059;-78
2023/08/29 21:54:15;;;;;;;22.95;5.93;;;21.80;70.00;;;;;;5134369;27;20486;-80
2023/08/29 21:56:43;;;;;;;25.50;5.65;;;21.70;70.00;;;;;;5134367;27;20494;-81
2023/08/29 21:59:09;;;;;;;15.23;4.85;;;21.70;70.30;;;;;;5134444;27;20038;-80
2023/08/29 22:01:34;;;;;;;23.02;5.32;;;21.70;70.60;;;;;;5134253;27;20027;-79
2023/08/29 22:04:00;;;;;;;21.20;5.40;;;21.60;70.80;;;;;;5133944;27;20120;-81
2023/08/29 22:06:26;;;;;;;16.70;5.25;;;21.60;71.20;;;;;;5133853;27;20035;-80
2023/08/29 22:08:51;;;;;;;16.85;5.18;;;21.50;71.40;;;;;;5133035;27;20100;-77
2023/08/29 22:11:17;;;;;;;22.05;5.05;;;21.50;71.30;;;;;;5133520;27;20031;-78
2023/08/29 22:13:42;;;;;;;22.20;4.90;;;21.50;71.30;;;;;;5134044;27;20043;-77
2023/08/29 22:16:08;;;;;;;14.80;4.45;;;21.50;71.10;;;;;;5133931;27;20031;-78
2023/08/29 22:18:34;;;;;;;25.90;5.25;;;21.50;70.80;;;;;;5133848;27;20039;-78
2023/08/29 22:20:59;;;;;;;17.52;4.65;;;21.60;70.80;;;;;;5115208;27;20073;-78
2023/08/29 22:23:25;;;;;;;21.45;5.57;;;21.60;70.50;;;;;;5134777;27;20067;-79
2023/08/29 22:25:51;;;;;;;18.45;5.43;;;21.50;70.40;;;;;;5134218;27;20027;-78
2023/08/29 22:28:16;;;;;;;21.42;5.53;;;21.50;70.60;;;;;;5133918;27;20038;-77
2023/08/29 22:30:42;;;;;;;22.75;4.75;;;21.50;70.50;;;;;;5133815;27;20027;-81
2023/08/29 22:33:08;;;;;;;19.25;5.22;;;21.50;70.30;;;;;;5133632;27;20047;-81
2023/08/29 22:35:34;;;;;;;20.10;5.25;;;21.50;70.10;;;;;;5134259;27;20099;-77
2023/08/29 22:37:59;;;;;;;16.23;4.75;;;21.40;69.90;;;;;;5133803;27;20111;-77
2023/08/29 22:40:25;;;;;;;18.80;5.32;;;21.40;70.00;;;;;;5133813;27;20031;-78
2023/08/29 22:42:52;;;;;;;22.17;5.55;;;21.40;70.10;;;;;;5134913;27;20031;-79
2023/08/29 22:45:18;;;;;;;17.75;4.60;;;21.40;71.30;;;;;;5136577;27;20039;-78
2023/08/29 22:47:44;;;;;;;18.17;5.47;;;21.40;70.70;;;;;;5133692;27;20027;-81
2023/08/29 22:50:10;;;;;;;19.70;5.28;;;21.40;70.90;;;;;;5132646;27;20074;-78
2023/08/29 22:52:38;;;;;;;17.77;5.40;;;21.30;71.10;;;;;;5133284;27;20439;-78
2023/08/29 22:55:04;;;;;;;15.75;5.00;;;21.30;71.10;;;;;;5133426;27;20509;-79
2023/08/29 22:57:30;;;;;;;21.08;5.28;;;21.40;71.60;;;;;;5133671;27;20023;-78
2023/08/29 22:59:56;;;;;;;24.73;5.65;;;21.40;71.20;;;;;;5133207;27;20386;-78
2023/08/29 23:02:21;;;;;;;18.08;5.07;;;21.40;71.30;;;;;;5133674;27;20577;-79
2023/08/29 23:04:47;;;;;;;16.42;4.72;;;21.50;71.20;;;;;;5133365;27;20027;-79
2023/08/29 23:07:13;;;;;;;15.70;4.32;;;21.50;71.30;;;;;;5133254;27;20033;-79
2023/08/29 23:09:39;;;;;;;16.73;5.05;;;21.40;70.90;;;;;;5133287;27;20043;-77
2023/08/29 23:12:05;;;;;;;20.30;5.60;;;21.40;71.00;;;;;;5133232;28;20031;-78
2023/08/29 23:14:30;;;;;;;18.42;5.72;;;21.40;71.30;;;;;;5133672;28;20043;-79
2023/08/29 23:16:57;;;;;;;17.85;5.50;;;21.40;71.20;;;;;;5133387;28;20023;-79
2023/08/29 23:19:23;;;;;;;20.45;4.25;;;21.40;71.60;;;;;;5133533;28;20077;-80
2023/08/29 23:21:49;;;;;;;15.32;5.20;;;21.40;71.70;;;;;;5136341;27;20031;-77
2023/08/29 23:24:15;;;;;;;19.88;5.57;;;21.40;71.60;;;;;;5137617;27;20027;-77
2023/08/29 23:26:41;;;;;;;18.67;5.90;;;21.40;71.80;;;;;;5137525;27;20035;-78
2023/08/29 23:29:06;;;;;;;17.15;4.97;;;21.40;71.80;;;;;;5137618;27;20505;-79
2023/08/29 23:31:32;;;;;;;19.83;5.80;;;21.30;72.00;;;;;;5137334;27;20037;-77
2023/08/29 23:33:58;;;;;;;17.33;5.28;;;21.30;72.00;;;;;;5137090;27;20084;-79
2023/08/29 23:36:24;;;;;;;19.95;5.32;;;21.20;72.20;;;;;;5137314;27;20032;-77
2023/08/29 23:38:51;;;;;;;22.92;5.40;;;21.20;72.30;;;;;;5137097;27;20031;-79
2023/08/29 23:41:16;;;;;;;16.75;5.50;;;21.20;72.30;;;;;;5137113;27;20047;-79
2023/08/29 23:43:42;;;;;;;21.67;5.45;;;21.30;72.50;;;;;;5136840;27;20036;-79
2023/08/29 23:46:08;;;;;;;17.00;4.75;;;21.20;72.40;;;;;;5136992;27;20023;-78
2023/08/29 23:48:34;;;;;;;16.83;5.07;;;21.20;72.50;;;;;;5136911;27;20035;-78
2023/08/29 23:51:01;;;;;;;17.15;5.70;;;21.20;72.50;;;;;;5118243;27;20588;-78
2023/08/29 23:53:26;;;;;;;18.38;4.68;;;21.20;72.60;;;;;;5136862;27;20050;-77
2023/08/29 23:55:52;;;;;;;18.77;5.20;;;21.20;72.60;;;;;;5136789;27;20402;-79
2023/08/29 23:58:18;;;;;;;22.52;5.13;;;21.20;72.40;;;;;;5136408;27;20109;-77
